createdAt,value
2018-03-18T00:02:06.409Z,72.12
2018-03-18T00:04:33.910Z,71.33
2018-03-18T00:07:01.376Z,72.65
2018-03-18T00:09:28.867Z,72.98
2018-03-18T00:11:56.331Z,70.92
2018-03-18T00:14:23.824Z,70.31
2018-03-18T00:16:51.283Z,71.62
2018-03-18T00:19:18.779Z,70.97
2018-03-18T00:21:46.250Z,71.19
2018-03-18T00:24:13.975Z,71.93
2018-03-18T00:26:43.447Z,72.87
2018-03-18T00:29:12.016Z,71.42
2018-03-18T00:31:39.509Z,71.20
2018-03-18T00:34:07.212Z,71.43
2018-03-18T00:36:34.683Z,71.66
2018-03-18T00:39:02.340Z,69.57
2018-03-18T00:41:30.320Z,70.64
2018-03-18T00:43:57.918Z,71.61
2018-03-18T00:46:25.430Z,71.28
2018-03-18T00:48:53.065Z,72.19
2018-03-18T00:51:33.392Z,70.86
2018-03-18T00:54:00.932Z,70.86
2018-03-18T00:56:28.771Z,71.82
2018-03-18T00:58:56.331Z,71.75
2018-03-18T01:01:23.848Z,72.10
2018-03-18T01:03:51.354Z,71.55
2018-03-18T01:06:18.895Z,71.65
2018-03-18T01:08:47.254Z,70.38
2018-03-18T01:11:15.365Z,71.07
2018-03-18T01:13:43.206Z,71.47
2018-03-18T01:16:10.776Z,71.64
2018-03-18T01:18:39.228Z,72.58
2018-03-18T01:21:06.820Z,72.18
2018-03-18T01:23:34.283Z,71.79
2018-03-18T01:26:01.766Z,72.25
2018-03-18T01:28:29.231Z,72.70
2018-03-18T01:30:56.739Z,72.14
2018-03-18T01:33:24.208Z,72.08
2018-03-18T01:35:51.708Z,71.76
2018-03-18T01:38:19.183Z,72.89
2018-03-18T01:40:46.671Z,72.75
2018-03-18T01:43:14.140Z,72.78
2018-03-18T01:45:41.628Z,70.84
2018-03-18T01:48:09.090Z,71.76
2018-03-18T01:50:36.588Z,71.18
2018-03-18T01:53:15.908Z,71.52
2018-03-18T01:55:43.392Z,73.22
2018-03-18T01:58:10.863Z,73.17
2018-03-18T02:00:38.358Z,73.79
2018-03-18T02:03:05.835Z,72.97
2018-03-18T02:05:33.317Z,71.69
2018-03-18T02:08:00.839Z,71.20
2018-03-18T02:10:28.332Z,71.44
2018-03-18T02:12:55.833Z,71.74
2018-03-18T02:15:23.298Z,72.98
2018-03-18T02:17:50.792Z,73.49
2018-03-18T02:20:18.261Z,72.94
2018-03-18T02:22:45.755Z,72.22
2018-03-18T02:25:13.227Z,71.66
2018-03-18T02:27:40.959Z,71.59
2018-03-18T02:30:08.438Z,70.91
2018-03-18T02:32:35.943Z,72.03
2018-03-18T02:35:04.256Z,72.57
2018-03-18T02:37:31.747Z,72.07
2018-03-18T02:39:59.217Z,72.50
2018-03-18T02:42:26.705Z,72.31
2018-03-18T02:44:54.179Z,71.51
2018-03-18T02:47:21.681Z,71.51
2018-03-18T02:49:49.144Z,69.98
2018-03-18T02:52:16.640Z,71.50
2018-03-18T02:54:44.108Z,70.81
2018-03-18T02:57:11.607Z,70.83
2018-03-18T02:59:39.071Z,71.23
2018-03-18T03:02:06.556Z,70.48
2018-03-18T03:04:34.015Z,70.08
2018-03-18T03:07:01.475Z,71.93
2018-03-18T03:09:28.979Z,70.20
2018-03-18T03:11:56.447Z,70.42
2018-03-18T03:14:23.931Z,70.90
2018-03-18T03:16:51.398Z,71.80
2018-03-18T03:19:18.891Z,71.16
2018-03-18T03:21:46.359Z,72.08
2018-03-18T03:24:13.847Z,71.34
2018-03-18T03:26:41.309Z,72.26
2018-03-18T03:29:08.792Z,71.93
2018-03-18T03:31:36.258Z,71.27
2018-03-18T03:34:03.835Z,71.48
2018-03-18T03:36:31.298Z,70.70
2018-03-18T03:38:58.786Z,71.31
2018-03-18T03:41:26.265Z,73.08
2018-03-18T03:43:53.751Z,72.79
2018-03-18T03:46:21.228Z,73.50
2018-03-18T03:48:48.723Z,73.83
2018-03-18T03:51:16.195Z,74.78
2018-03-18T03:53:43.683Z,75.97
2018-03-18T03:56:11.150Z,76.24
2018-03-18T03:58:38.650Z,76.14
2018-03-18T04:01:06.115Z,77.23
2018-03-18T04:03:33.575Z,79.86
2018-03-18T04:06:01.058Z,82.21
2018-03-18T04:08:28.523Z,83.53
2018-03-18T04:10:56.012Z,83.55
2018-03-18T04:13:23.482Z,84.40
2018-03-18T04:15:50.978Z,84.01
2018-03-18T04:18:18.442Z,84.60
2018-03-18T04:20:45.937Z,84.62
2018-03-18T04:23:13.398Z,84.05
2018-03-18T04:25:40.886Z,82.99
2018-03-18T04:28:08.350Z,82.95
2018-03-18T04:30:35.868Z,81.68
2018-03-18T04:33:03.337Z,80.81
2018-03-18T04:35:30.833Z,79.65
2018-03-18T04:37:58.292Z,80.16
2018-03-18T04:40:25.794Z,80.15
2018-03-18T04:42:53.256Z,79.00
2018-03-18T04:45:20.740Z,77.27
2018-03-18T04:47:48.218Z,77.72
2018-03-18T04:50:15.704Z,78.12
2018-03-18T04:52:43.178Z,77.79
2018-03-18T04:55:10.684Z,78.12
2018-03-18T04:57:38.150Z,78.40
2018-03-18T05:00:05.616Z,78.86
2018-03-18T05:02:33.109Z,78.60
2018-03-18T05:05:00.587Z,78.84
2018-03-18T05:07:28.090Z,80.04
2018-03-18T05:09:55.546Z,80.50
2018-03-18T05:12:23.031Z,80.02
2018-03-18T05:14:50.507Z,80.42
2018-03-18T05:17:18.002Z,80.82
2018-03-18T05:19:45.470Z,80.46
2018-03-18T05:22:12.958Z,80.46
2018-03-18T05:24:40.417Z,80.78
2018-03-18T05:27:07.902Z,81.05
2018-03-18T05:29:35.363Z,81.02
2018-03-18T05:32:02.860Z,81.71
2018-03-18T05:34:30.328Z,81.67
2018-03-18T05:36:57.818Z,81.21
2018-03-18T05:39:25.285Z,82.08
2018-03-18T05:41:52.802Z,82.97
2018-03-18T05:44:20.368Z,83.41
2018-03-18T05:46:47.839Z,83.54
2018-03-18T05:49:15.339Z,83.38
2018-03-18T05:51:42.803Z,83.20
2018-03-18T05:54:10.376Z,83.79
2018-03-18T05:56:37.853Z,84.09
2018-03-18T05:59:05.340Z,83.23
2018-03-18T06:01:32.807Z,84.27
2018-03-18T06:04:00.291Z,84.63
2018-03-18T06:06:27.761Z,85.25
2018-03-18T06:08:55.263Z,85.71
2018-03-18T06:11:22.732Z,85.84
2018-03-18T06:13:50.251Z,86.16
2018-03-18T06:16:17.711Z,86.45
2018-03-18T06:18:45.171Z,86.24
2018-03-18T06:21:12.659Z,86.04
2018-03-18T06:23:40.115Z,86.13
2018-03-18T06:26:07.615Z,86.31
2018-03-18T06:28:35.092Z,86.71
2018-03-18T06:31:02.600Z,86.76
2018-03-18T06:33:30.070Z,86.77
2018-03-18T06:35:57.567Z,86.66
2018-03-18T06:38:25.033Z,86.55
2018-03-18T06:40:52.523Z,86.35
2018-03-18T06:43:19.995Z,86.38
2018-03-18T06:45:47.483Z,85.84
2018-03-18T06:48:14.975Z,86.04
2018-03-18T06:50:42.490Z,86.05
2018-03-18T06:53:09.946Z,85.86
2018-03-18T06:55:37.411Z,85.53
2018-03-18T06:58:04.905Z,85.47
2018-03-18T07:00:33.495Z,85.07
2018-03-18T07:03:00.984Z,84.92
2018-03-18T07:05:28.454Z,84.58
2018-03-18T07:07:55.941Z,84.24
2018-03-18T07:10:23.399Z,83.51
2018-03-18T07:12:50.954Z,83.40
2018-03-18T07:15:18.375Z,82.58
2018-03-18T07:17:45.867Z,81.99
2018-03-18T07:20:13.331Z,80.86
2018-03-18T07:22:40.838Z,80.82
2018-03-18T07:25:08.311Z,80.55
2018-03-18T07:27:35.799Z,80.32
2018-03-18T07:30:03.269Z,80.13
2018-03-18T07:32:30.764Z,79.42
2018-03-18T07:34:58.224Z,79.87
2018-03-18T07:37:25.748Z,79.40
2018-03-18T07:39:53.206Z,79.43
2018-03-18T07:42:20.663Z,79.28
2018-03-18T07:44:48.151Z,79.57
2018-03-18T07:47:15.685Z,79.82
2018-03-18T07:49:43.143Z,79.13
2018-03-18T07:52:10.604Z,79.30
2018-03-18T07:54:38.132Z,78.68
2018-03-18T07:57:05.600Z,78.05
2018-03-18T07:59:33.089Z,78.10
2018-03-18T08:02:00.574Z,78.36
2018-03-18T08:04:28.070Z,77.34
2018-03-18T08:06:55.531Z,77.58
2018-03-18T08:09:23.027Z,77.90
2018-03-18T08:11:50.493Z,78.55
2018-03-18T08:14:18.054Z,77.40
2018-03-18T08:16:45.511Z,77.79
2018-03-18T08:19:12.984Z,76.60
2018-03-18T08:21:40.484Z,77.19
2018-03-18T08:24:08.888Z,76.99
2018-03-18T08:26:36.383Z,76.82
2018-03-18T08:29:03.864Z,76.08
2018-03-18T08:31:31.356Z,76.33
2018-03-18T08:33:58.819Z,74.58
2018-03-18T08:36:26.307Z,75.17
2018-03-18T08:38:53.771Z,72.76
2018-03-18T08:41:21.306Z,71.35
2018-03-18T08:43:48.735Z,68.49
2018-03-18T08:46:16.219Z,67.94
2018-03-18T08:48:43.689Z,68.05
2018-03-18T08:51:11.200Z,65.01
2018-03-18T08:53:38.668Z,62.55
2018-03-18T08:56:06.158Z,64.53
2018-03-18T08:58:33.681Z,65.56
2018-03-18T09:01:01.223Z,64.56
2018-03-18T09:03:28.708Z,64.99
2018-03-18T09:05:56.175Z,65.04
2018-03-18T09:08:23.667Z,63.46
2018-03-18T09:10:51.132Z,63.16
2018-03-18T09:13:18.607Z,63.30
2018-03-18T09:15:46.070Z,61.46
2018-03-18T09:18:13.566Z,63.71
2018-03-18T09:20:41.090Z,61.40
2018-03-18T09:23:08.568Z,62.36
2018-03-18T09:25:36.027Z,62.96
2018-03-18T09:28:03.510Z,62.95
2018-03-18T09:30:30.995Z,61.98
2018-03-18T09:32:58.496Z,64.52
2018-03-18T09:35:25.956Z,60.57
2018-03-18T09:37:53.411Z,63.19
2018-03-18T09:40:20.886Z,63.52
2018-03-18T09:42:48.339Z,63.15
2018-03-18T09:45:15.831Z,63.19
2018-03-18T09:47:43.305Z,64.26
2018-03-18T09:50:10.818Z,62.62
2018-03-18T09:52:38.283Z,64.66
2018-03-18T09:55:05.768Z,60.82
2018-03-18T09:57:33.238Z,59.34
2018-03-18T10:00:00.738Z,59.96
2018-03-18T10:02:28.213Z,59.87
2018-03-18T10:04:55.727Z,56.26
2018-03-18T10:07:23.187Z,56.78
2018-03-18T10:09:50.666Z,59.70
2018-03-18T10:12:18.160Z,59.86
2018-03-18T10:14:45.607Z,57.67
2018-03-18T10:17:13.091Z,61.40
2018-03-18T10:19:40.547Z,61.03
2018-03-18T10:22:08.043Z,58.74
2018-03-18T10:24:35.527Z,60.14
2018-03-18T10:27:03.010Z,60.46
2018-03-18T10:29:30.481Z,59.22
2018-03-18T10:31:57.985Z,60.42
2018-03-18T10:34:25.512Z,59.86
2018-03-18T10:36:53.036Z,60.34
2018-03-18T10:39:20.499Z,58.85
2018-03-18T10:41:47.989Z,59.36
2018-03-18T10:44:15.450Z,58.85
2018-03-18T10:46:42.945Z,59.84
2018-03-18T10:49:10.406Z,61.10
2018-03-18T10:51:37.863Z,60.77
2018-03-18T10:54:16.397Z,57.36
2018-03-18T10:59:23.148Z,58.88
2018-03-18T11:01:55.558Z,60.18
2018-03-18T11:04:23.048Z,58.04
2018-03-18T11:06:50.518Z,58.52
2018-03-18T11:09:18.017Z,63.33
2018-03-18T11:11:45.462Z,63.06
2018-03-18T11:14:12.956Z,62.57
2018-03-18T11:16:40.455Z,61.83
2018-03-18T11:19:07.946Z,60.94
2018-03-18T11:21:35.403Z,63.33
2018-03-18T11:24:02.884Z,62.59
2018-03-18T11:26:30.336Z,59.61
2018-03-18T11:28:57.817Z,60.48
2018-03-18T11:31:25.273Z,60.79
2018-03-18T11:33:52.762Z,59.87
2018-03-18T11:36:20.236Z,59.01
2018-03-18T11:38:47.748Z,57.52
2018-03-18T11:41:15.443Z,60.20
2018-03-18T11:43:43.139Z,57.17
2018-03-18T11:46:10.643Z,59.44
2018-03-18T11:48:38.183Z,57.99
2018-03-18T11:51:05.663Z,58.90
2018-03-18T11:53:33.124Z,56.97
2018-03-18T11:56:00.638Z,55.13
2018-03-18T11:58:28.106Z,57.58
2018-03-18T12:00:55.590Z,57.68
2018-03-18T12:03:23.043Z,56.62
2018-03-18T12:05:50.536Z,55.80
2018-03-18T12:08:30.558Z,54.38
2018-03-18T12:10:58.062Z,56.05
2018-03-18T12:13:26.099Z,53.39
2018-03-18T12:15:53.680Z,56.01
2018-03-18T12:18:21.166Z,55.67
2018-03-18T12:20:49.527Z,53.62
2018-03-18T12:23:16.999Z,55.16
2018-03-18T12:25:44.448Z,53.92
2018-03-18T12:28:11.928Z,54.99
2018-03-18T12:30:39.375Z,54.84
2018-03-18T12:33:06.847Z,54.85
2018-03-18T12:35:45.883Z,54.65
2018-03-18T12:38:13.363Z,53.50
2018-03-18T12:40:51.547Z,52.13
2018-03-18T12:43:27.665Z,53.66
2018-03-18T12:45:55.116Z,54.16
2018-03-18T12:48:22.614Z,53.34
2018-03-18T12:50:50.080Z,55.77
2018-03-18T12:53:17.559Z,55.84
2018-03-18T12:55:45.026Z,53.06
2018-03-18T12:58:13.656Z,51.49
2018-03-18T13:00:41.113Z,53.30
2018-03-18T13:03:08.665Z,52.84
2018-03-18T13:05:36.135Z,53.44
2018-03-18T13:08:03.624Z,54.48
2018-03-18T13:10:31.110Z,54.85
2018-03-18T13:12:58.563Z,55.09
2018-03-18T13:15:26.060Z,56.26
2018-03-18T13:17:53.531Z,56.77
2018-03-18T13:20:21.008Z,53.94
2018-03-18T13:22:48.456Z,54.98
2018-03-18T13:25:15.948Z,56.71
2018-03-18T13:27:43.400Z,55.35
2018-03-18T13:30:10.897Z,54.36
2018-03-18T13:32:38.360Z,56.92
2018-03-18T13:35:05.813Z,54.79
2018-03-18T13:37:33.297Z,56.31
2018-03-18T13:40:00.752Z,54.72
2018-03-18T13:42:28.248Z,57.01
2018-03-18T13:44:55.769Z,54.16
2018-03-18T13:47:23.257Z,56.98
2018-03-18T13:49:50.707Z,56.99
2018-03-18T13:52:18.216Z,57.78
2018-03-18T13:54:45.708Z,56.63
2018-03-18T13:57:13.198Z,56.34
2018-03-18T13:59:41.099Z,55.62
2018-03-18T14:02:09.856Z,54.21
2018-03-18T14:04:37.369Z,53.75
2018-03-18T14:07:04.867Z,53.31
2018-03-18T14:09:32.327Z,53.82
2018-03-18T14:11:59.783Z,54.89
2018-03-18T14:14:27.266Z,55.56
2018-03-18T14:16:56.734Z,54.55
2018-03-18T14:19:24.465Z,55.11
2018-03-18T14:21:51.941Z,54.91
2018-03-18T14:24:19.421Z,54.37
2018-03-18T14:26:46.885Z,53.20
2018-03-18T14:29:14.363Z,54.08
2018-03-18T14:31:41.819Z,53.49
2018-03-18T14:34:09.296Z,54.54
2018-03-18T14:36:36.767Z,54.21
2018-03-18T14:39:04.249Z,52.38
2018-03-18T14:41:31.715Z,53.14
2018-03-18T14:44:01.133Z,52.58
2018-03-18T14:46:28.591Z,52.70
2018-03-18T14:48:56.062Z,54.06
2018-03-18T14:51:23.547Z,53.28
2018-03-18T14:53:51.003Z,52.86
2018-03-18T14:56:18.548Z,51.71
2018-03-18T14:58:46.471Z,53.18
2018-03-18T15:01:13.993Z,53.42
2018-03-18T15:03:41.476Z,52.98
2018-03-18T15:06:08.963Z,52.52
2018-03-18T15:08:36.423Z,52.17
2018-03-18T15:11:03.909Z,51.66
2018-03-18T15:13:31.371Z,52.50
2018-03-18T15:15:58.827Z,53.40
2018-03-18T15:18:26.299Z,53.75
2018-03-18T15:20:53.759Z,55.07
2018-03-18T15:23:21.267Z,53.73
2018-03-18T15:25:48.728Z,54.08
2018-03-18T15:28:16.202Z,55.54
2018-03-18T15:30:43.665Z,55.53
2018-03-18T15:33:11.152Z,56.00
2018-03-18T15:35:38.606Z,55.49
2018-03-18T15:38:06.083Z,55.02
2018-03-18T15:40:33.531Z,53.98
2018-03-18T15:43:01.019Z,53.98
2018-03-18T15:45:28.484Z,56.10
2018-03-18T15:47:55.957Z,55.24
2018-03-18T15:50:23.481Z,56.48
2018-03-18T15:52:51.023Z,54.71
2018-03-18T15:55:18.519Z,55.65
2018-03-18T15:57:45.978Z,55.30
2018-03-18T16:00:13.464Z,55.91
2018-03-18T16:02:41.051Z,56.08
2018-03-18T16:05:08.526Z,55.85
2018-03-18T16:07:36.122Z,56.77
2018-03-18T16:10:03.609Z,57.43
2018-03-18T16:12:31.100Z,56.88
2018-03-18T16:14:58.583Z,56.07
2018-03-18T16:17:26.039Z,56.47
2018-03-18T16:19:53.524Z,55.40
2018-03-18T16:22:20.979Z,56.49
2018-03-18T16:24:48.475Z,56.81
2018-03-18T16:27:15.940Z,58.29
2018-03-18T16:29:55.280Z,56.38
2018-03-18T16:32:22.735Z,57.14
2018-03-18T16:34:50.208Z,58.42
2018-03-18T16:37:20.663Z,57.02
2018-03-18T16:39:48.127Z,56.79
2018-03-18T16:42:16.191Z,56.49
2018-03-18T16:44:43.694Z,56.02
2018-03-18T16:47:11.188Z,58.25
2018-03-18T16:49:43.701Z,57.51
2018-03-18T16:52:11.220Z,57.92
2018-03-18T16:54:39.074Z,58.06
2018-03-18T16:57:06.598Z,56.91
2018-03-18T16:59:34.063Z,57.43
2018-03-18T17:02:01.544Z,58.42
2018-03-18T17:04:29.000Z,56.96
2018-03-18T17:06:56.500Z,58.25
2018-03-18T17:09:23.988Z,57.90
2018-03-18T17:11:51.479Z,57.61
2018-03-18T17:14:18.990Z,56.75
2018-03-18T17:16:47.063Z,58.59
2018-03-18T17:19:14.519Z,58.14
2018-03-18T17:21:41.977Z,58.97
2018-03-18T17:24:10.316Z,59.24
2018-03-18T17:26:37.778Z,58.37
2018-03-18T17:29:05.293Z,56.95
2018-03-18T17:31:32.763Z,57.50
2018-03-18T17:34:00.280Z,56.71
2018-03-18T17:36:27.735Z,56.02
2018-03-18T17:38:55.206Z,55.98
2018-03-18T17:41:22.659Z,57.12
2018-03-18T17:43:50.168Z,56.61
2018-03-18T17:46:29.307Z,56.02
2018-03-18T17:49:08.542Z,56.44
2018-03-18T17:51:47.597Z,57.61
2018-03-18T17:54:26.947Z,56.65
2018-03-18T17:56:54.399Z,56.25
2018-03-18T17:59:21.883Z,56.58
2018-03-18T18:01:49.387Z,57.01
2018-03-18T18:04:16.883Z,56.43
2018-03-18T18:06:44.343Z,57.70
2018-03-18T18:09:11.850Z,58.40
2018-03-18T18:11:39.324Z,58.61
2018-03-18T18:14:06.775Z,59.24
2018-03-18T18:16:34.281Z,59.81
2018-03-18T18:19:01.739Z,59.90
2018-03-18T18:21:29.256Z,59.73
2018-03-18T18:23:56.711Z,59.10
2018-03-18T18:26:24.231Z,59.71
2018-03-18T18:28:51.712Z,59.62
2018-03-18T18:31:19.205Z,59.23
2018-03-18T18:33:46.659Z,59.15
2018-03-18T18:36:14.148Z,58.99
2018-03-18T18:38:41.621Z,58.65
2018-03-18T18:41:09.126Z,58.18
2018-03-18T18:43:36.603Z,57.94
2018-03-18T18:46:04.078Z,57.14
2018-03-18T18:48:31.567Z,58.54
2018-03-18T18:50:59.023Z,57.90
2018-03-18T18:53:26.532Z,56.61
2018-03-18T18:55:54.000Z,56.14
2018-03-18T18:58:21.478Z,57.44
2018-03-18T19:00:48.933Z,57.22
2018-03-18T19:03:16.436Z,58.23
2018-03-18T19:05:43.886Z,57.52
2018-03-18T19:08:11.388Z,56.53
2018-03-18T19:10:38.853Z,57.24
2018-03-18T19:13:06.314Z,57.16
2018-03-18T19:15:33.792Z,56.79
2018-03-18T19:18:01.273Z,57.67
2018-03-18T19:20:28.746Z,57.13
2018-03-18T19:22:56.203Z,56.88
2018-03-18T19:25:23.692Z,55.81
2018-03-18T19:27:51.155Z,57.24
2018-03-18T19:30:18.683Z,57.16
2018-03-18T19:32:46.152Z,56.83
2018-03-18T19:35:13.687Z,57.21
2018-03-18T19:37:41.157Z,56.17
2018-03-18T19:40:08.652Z,55.78
2018-03-18T19:42:36.131Z,56.47
2018-03-18T19:45:03.698Z,55.16
2018-03-18T19:47:31.180Z,54.21
2018-03-18T19:50:01.267Z,54.05
2018-03-18T19:52:28.737Z,55.85
2018-03-18T19:54:56.204Z,56.75
2018-03-18T19:57:23.701Z,54.22
2018-03-18T19:59:51.176Z,56.08
2018-03-18T20:02:18.676Z,54.17
2018-03-18T20:04:46.126Z,53.47
2018-03-18T20:07:13.612Z,55.06
2018-03-18T20:09:41.088Z,54.60
2018-03-18T20:12:08.875Z,54.44
2018-03-18T20:14:36.345Z,53.77
2018-03-18T20:17:03.826Z,54.45
2018-03-18T20:19:31.315Z,56.06
2018-03-18T20:21:58.805Z,56.14
2018-03-18T20:24:27.271Z,54.42
2018-03-18T20:26:54.834Z,54.79
2018-03-18T20:29:22.552Z,54.49
2018-03-18T20:31:50.139Z,53.18
2018-03-18T20:34:17.602Z,54.53
2018-03-18T20:36:45.088Z,53.05
2018-03-18T20:39:12.620Z,52.36
2018-03-18T20:41:40.145Z,54.30
2018-03-18T20:44:07.662Z,54.00
2018-03-18T20:46:35.143Z,52.98
2018-03-18T20:49:02.658Z,54.13
2018-03-18T20:51:30.188Z,54.56
2018-03-18T20:53:58.563Z,53.59
2018-03-18T20:56:26.055Z,53.10
2018-03-18T20:58:55.644Z,52.90
2018-03-18T21:01:23.157Z,53.48
2018-03-18T21:03:51.005Z,53.10
2018-03-18T21:06:18.956Z,53.25
2018-03-18T21:08:46.498Z,52.77
2018-03-18T21:11:13.985Z,53.93
2018-03-18T21:13:41.506Z,53.45
2018-03-18T21:16:09.002Z,53.46
2018-03-18T21:18:36.527Z,54.62
2018-03-18T21:21:03.992Z,53.44
2018-03-18T21:23:31.494Z,54.06
2018-03-18T21:25:58.980Z,54.73
2018-03-18T21:28:26.562Z,53.72
2018-03-18T21:30:54.116Z,53.44
2018-03-18T21:33:21.635Z,54.49
2018-03-18T21:35:49.143Z,54.57
2018-03-18T21:38:16.675Z,55.52
2018-03-18T21:40:44.154Z,55.06
2018-03-18T21:43:11.657Z,53.41
2018-03-18T21:45:39.240Z,54.94
2018-03-18T21:48:06.803Z,55.88
2018-03-18T21:50:34.356Z,54.90
2018-03-18T21:53:01.905Z,55.38
2018-03-18T21:55:29.477Z,55.68
2018-03-18T21:57:57.937Z,56.16
2018-03-18T22:00:25.556Z,54.88
2018-03-18T22:02:53.076Z,55.14
2018-03-18T22:05:20.720Z,55.77
2018-03-18T22:07:48.245Z,55.04
2018-03-18T22:10:15.816Z,54.70
2018-03-18T22:12:43.381Z,56.53
2018-03-18T22:15:10.985Z,54.19
2018-03-18T22:17:38.523Z,55.34
2018-03-18T22:20:06.092Z,54.89
2018-03-18T22:22:33.656Z,56.75
2018-03-18T22:25:01.235Z,54.60
2018-03-18T22:27:28.784Z,54.94
2018-03-18T22:29:56.344Z,54.35
2018-03-18T22:32:23.905Z,54.77
2018-03-18T22:34:51.440Z,55.99
2018-03-18T22:37:19.000Z,56.78
2018-03-18T22:39:46.535Z,56.06
2018-03-18T22:42:14.660Z,57.54
2018-03-18T22:44:42.196Z,54.68
2018-03-18T22:47:09.777Z,55.21
2018-03-18T22:49:37.332Z,56.19
2018-03-18T22:52:04.973Z,56.44
2018-03-18T22:54:32.523Z,56.15
2018-03-18T22:57:00.050Z,57.50
2018-03-18T22:59:27.633Z,57.06
2018-03-18T23:01:55.153Z,55.25
2018-03-18T23:04:22.704Z,56.21
2018-03-18T23:06:50.229Z,57.04
2018-03-18T23:09:17.720Z,55.53
2018-03-18T23:11:45.187Z,56.58
2018-03-18T23:14:12.665Z,55.74
2018-03-18T23:16:40.128Z,56.41
2018-03-18T23:19:07.623Z,56.64
2018-03-18T23:21:35.075Z,56.25
2018-03-18T23:24:02.592Z,56.44
2018-03-18T23:26:30.042Z,55.98
2018-03-18T23:28:57.519Z,56.42
2018-03-18T23:31:24.981Z,56.29
2018-03-18T23:33:52.498Z,57.37
2018-03-18T23:36:19.958Z,57.70
2018-03-18T23:38:47.420Z,56.77
2018-03-18T23:41:14.906Z,56.49
2018-03-18T23:43:42.365Z,56.30
2018-03-18T23:46:09.863Z,55.79
2018-03-18T23:48:37.322Z,56.54
2018-03-18T23:51:04.815Z,56.05
2018-03-18T23:53:32.267Z,56.32
2018-03-18T23:55:59.749Z,56.45
2018-03-18T23:58:27.207Z,56.61
